Time;durP1;ratioP1;P1;durP2;ratioP2;P2;SDS_P1;SDS_P2;PMS_P1;PMS_P2;Temp;Humidity;BMP_temperature;BMP_pressure;BME280_temperature;BME280_humidity;BME280_pressure;Samples;Min_cycle;Max_cycle;Signal;HPM_P1;HPM_P2
2023/01/26 00:00:54;;;;;;;10.52;8.10;;;23.00;39.20;;;;;;6127999;28;80526;-59
2023/01/26 00:03:55;;;;;;;9.43;7.65;;;23.00;40.30;;;;;;6109423;28;85330;-59
2023/01/26 00:06:55;;;;;;;11.98;7.97;;;23.00;40.40;;;;;;6127558;28;81729;-59
2023/01/26 00:09:56;;;;;;;10.32;7.80;;;22.90;40.60;;;;;;6124115;28;80991;-59
2023/01/26 00:12:56;;;;;;;10.50;7.50;;;22.90;40.10;;;;;;6131460;28;80528;-58
2023/01/26 00:15:57;;;;;;;11.63;7.68;;;22.90;40.10;;;;;;6120483;28;80528;-58
2023/01/26 00:18:57;;;;;;;8.73;7.00;;;22.80;40.30;;;;;;6122351;28;82161;-48
2023/01/26 00:21:58;;;;;;;12.25;8.40;;;22.80;40.60;;;;;;6120263;28;80367;-48
2023/01/26 00:24:58;;;;;;;11.45;7.72;;;22.80;40.30;;;;;;6116048;28;81142;-48
2023/01/26 00:27:59;;;;;;;10.77;8.30;;;22.70;40.10;;;;;;6123364;28;82706;-50
2023/01/26 00:30:59;;;;;;;10.75;8.18;;;22.70;40.00;;;;;;6116665;28;81738;-47
2023/01/26 00:34:00;;;;;;;11.47;8.60;;;22.70;40.00;;;;;;6063269;28;1198947;-52
2023/01/26 00:37:01;;;;;;;12.50;8.30;;;22.70;39.90;;;;;;6106885;28;82007;-49
2023/01/26 00:40:01;;;;;;;11.75;8.50;;;22.70;39.80;;;;;;6113427;28;81392;-50
2023/01/26 00:43:02;;;;;;;13.73;9.43;;;22.70;39.90;;;;;;6107202;28;80600;-54
2023/01/26 00:46:02;;;;;;;11.65;8.63;;;22.60;39.90;;;;;;6128090;28;83923;-48
2023/01/26 00:49:03;;;;;;;12.90;9.23;;;22.70;40.00;;;;;;6128310;28;83405;-49
2023/01/26 00:52:03;;;;;;;12.02;9.27;;;22.60;39.90;;;;;;6116568;28;81924;-48
2023/01/26 00:55:04;;;;;;;10.85;8.32;;;22.60;39.90;;;;;;6145157;28;81698;-47
2023/01/26 00:58:04;;;;;;;12.02;8.93;;;22.60;40.00;;;;;;6142129;28;81803;-47
2023/01/26 01:01:05;;;;;;;12.07;9.15;;;22.60;40.10;;;;;;6141888;28;83466;-48
2023/01/26 01:04:05;;;;;;;11.65;8.65;;;22.60;40.10;;;;;;6134935;28;80855;-46
2023/01/26 01:07:06;;;;;;;12.15;8.50;;;22.60;40.30;;;;;;6131097;28;80901;-47
2023/01/26 01:10:07;;;;;;;11.60;8.57;;;22.60;40.30;;;;;;6124119;28;80976;-47
2023/01/26 01:13:08;;;;;;;11.82;8.45;;;22.60;40.40;;;;;;6122337;28;80605;-47
2023/01/26 01:16:08;;;;;;;11.60;8.80;;;22.60;40.30;;;;;;6138505;28;80880;-50
2023/01/26 01:19:09;;;;;;;12.35;8.55;;;22.50;40.20;;;;;;6140592;28;87121;-47
2023/01/26 01:22:09;;;;;;;10.93;8.68;;;22.60;40.30;;;;;;6133099;28;83854;-50
2023/01/26 01:25:10;;;;;;;14.63;9.98;;;22.50;40.30;;;;;;6121048;28;80410;-48
2023/01/26 01:28:10;;;;;;;11.10;8.27;;;22.50;40.50;;;;;;6132526;28;83015;-47
2023/01/26 01:31:11;;;;;;;11.77;8.98;;;22.50;40.40;;;;;;6116188;28;82879;-57
2023/01/26 01:34:11;;;;;;;11.43;9.13;;;22.50;40.40;;;;;;6116167;28;81205;-58
2023/01/26 01:37:12;;;;;;;11.60;8.40;;;22.50;40.50;;;;;;6130885;28;80796;-58
2023/01/26 01:40:12;;;;;;;11.32;8.90;;;22.50;40.70;;;;;;6150089;28;81569;-59
2023/01/26 01:43:13;;;;;;;11.95;9.00;;;22.50;40.60;;;;;;6140913;28;80418;-59
2023/01/26 01:46:14;;;;;;;11.93;9.32;;;22.50;40.50;;;;;;6155494;28;81760;-59
2023/01/26 01:49:14;;;;;;;10.52;8.40;;;22.40;40.40;;;;;;6126414;28;82124;-57
2023/01/26 01:52:16;;;;;;;12.90;9.32;;;22.50;40.30;;;;;;6125706;28;83345;-58
2023/01/26 01:55:17;;;;;;;13.98;9.70;;;22.50;40.40;;;;;;6130700;28;80851;-58
2023/01/26 01:58:17;;;;;;;12.30;9.60;;;22.40;40.40;;;;;;6138834;28;81008;-58
2023/01/26 02:01:18;;;;;;;13.38;9.30;;;22.50;40.50;;;;;;6127933;28;80571;-58
2023/01/26 02:04:18;;;;;;;12.27;8.98;;;22.40;40.50;;;;;;6126596;28;83525;-58
2023/01/26 02:07:19;;;;;;;13.25;9.55;;;22.40;40.60;;;;;;6125066;28;84405;-59
2023/01/26 02:10:19;;;;;;;12.48;9.00;;;22.40;40.60;;;;;;6126169;28;81634;-59
2023/01/26 02:13:20;;;;;;;11.35;8.57;;;22.40;40.70;;;;;;6124771;28;82808;-59
2023/01/26 02:16:21;;;;;;;12.43;9.88;;;22.40;40.70;;;;;;6124773;28;81280;-58
2023/01/26 02:19:21;;;;;;;11.88;8.73;;;22.40;40.90;;;;;;6125494;28;82896;-58
2023/01/26 02:22:22;;;;;;;15.15;9.93;;;22.40;41.00;;;;;;6135143;28;80391;-58
2023/01/26 02:25:22;;;;;;;11.80;9.07;;;22.40;41.00;;;;;;6121125;28;80773;-47
2023/01/26 02:28:23;;;;;;;11.88;8.85;;;22.40;41.10;;;;;;6139214;28;83045;-50
2023/01/26 02:31:24;;;;;;;13.70;9.68;;;22.40;41.10;;;;;;6119661;28;83143;-46
2023/01/26 02:34:27;;;;;;;11.43;8.07;;;22.40;41.20;;;;;;6112792;28;83253;-46
2023/01/26 02:37:28;;;;;;;11.43;8.43;;;22.40;41.30;;;;;;6125794;28;82726;-47
2023/01/26 02:40:29;;;;;;;11.73;8.50;;;22.30;41.30;;;;;;6127015;28;82198;-50
2023/01/26 02:43:29;;;;;;;10.95;8.40;;;22.30;41.20;;;;;;6115456;28;83304;-46
2023/01/26 02:46:31;;;;;;;11.73;8.80;;;22.30;41.40;;;;;;6115896;28;83193;-51
2023/01/26 02:49:49;;;;;;;10.85;8.43;;;22.40;41.30;;;;;;6108703;28;80558;-46
2023/01/26 02:52:50;;;;;;;14.13;8.95;;;22.30;41.00;;;;;;6123226;28;83780;-47
2023/01/26 02:55:54;;;;;;;11.75;8.45;;;22.30;40.90;;;;;;6102908;28;83510;-48
2023/01/26 02:58:54;;;;;;;11.20;8.77;;;22.30;40.90;;;;;;6115633;28;83176;-50
2023/01/26 03:01:55;;;;;;;10.18;7.78;;;22.30;40.90;;;;;;6115636;28;81738;-49
2023/01/26 03:04:56;;;;;;;9.18;7.90;;;22.30;40.90;;;;;;6122182;28;83544;-52
2023/01/26 03:07:56;;;;;;;12.05;8.68;;;22.30;41.00;;;;;;6108904;28;83058;-47
2023/01/26 03:11:01;;;;;;;11.70;8.55;;;22.30;40.90;;;;;;6125808;28;82883;-47
2023/01/26 03:14:01;;;;;;;11.20;8.32;;;22.30;40.80;;;;;;6132645;28;83037;-48
2023/01/26 03:17:02;;;;;;;11.60;8.65;;;22.30;40.90;;;;;;6105341;28;80710;-49
2023/01/26 03:30:06;;;;;;;10.85;8.10;;;22.20;40.70;;;;;;6125832;28;88041;-59
2023/01/26 03:33:07;;;;;;;11.30;8.52;;;22.30;40.70;;;;;;6120256;28;83118;-59
2023/01/26 03:36:08;;;;;;;11.10;8.27;;;22.30;40.50;;;;;;6110835;28;82383;-59
2023/01/26 03:41:06;;;;;;;12.40;8.85;;;22.20;40.50;;;;;;6130811;28;83453;-58
2023/01/26 03:59:08;;;;;;;11.88;8.65;;;22.20;40.50;;;;;;6127753;28;81956;-58
2023/01/26 04:08:47;;;;;;;10.73;7.97;;;22.20;40.60;;;;;;6125280;28;83445;-60
2023/01/26 04:11:48;;;;;;;11.50;8.55;;;22.20;40.50;;;;;;6115714;28;83362;-59
2023/01/26 04:21:37;;;;;;;11.23;8.75;;;22.30;39.80;;;;;;6126516;28;83478;-60
2023/01/26 04:24:45;;;;;;;11.90;8.65;;;22.30;39.50;;;;;;6119807;28;82304;-59
2023/01/26 04:27:46;;;;;;;13.27;8.75;;;22.40;38.70;;;;;;6136414;28;81868;-60
2023/01/26 04:30:48;;;;;;;12.82;8.55;;;22.40;38.70;;;;;;6109397;28;82319;-60
2023/01/26 04:33:49;;;;;;;13.80;9.20;;;22.50;38.60;;;;;;6110317;28;83610;-60
2023/01/26 04:36:49;;;;;;;11.85;8.75;;;22.60;38.70;;;;;;6127819;28;80726;-61
2023/01/26 04:39:51;;;;;;;14.48;10.40;;;22.60;38.60;;;;;;6103987;28;83398;-60
2023/01/26 04:42:52;;;;;;;11.98;9.20;;;22.60;38.70;;;;;;6106900;28;82934;-62
2023/01/26 04:45:52;;;;;;;11.55;9.35;;;22.70;38.70;;;;;;6108729;28;81710;-63
2023/01/26 04:48:53;;;;;;;11.27;8.75;;;22.70;38.50;;;;;;6113004;28;83345;-61
2023/01/26 04:51:54;;;;;;;11.98;9.05;;;22.70;38.60;;;;;;6103966;28;83584;-62
2023/01/26 04:54:54;;;;;;;11.65;8.88;;;22.80;38.70;;;;;;6114445;28;80813;-67
2023/01/26 04:57:56;;;;;;;16.30;9.70;;;22.80;38.60;;;;;;6151971;28;81802;-63
2023/01/26 05:00:57;;;;;;;12.75;9.43;;;22.80;38.30;;;;;;6110611;28;83676;-61
2023/01/26 05:03:58;;;;;;;13.90;10.15;;;22.90;38.20;;;;;;6118279;28;83383;-65
2023/01/26 05:06:59;;;;;;;14.13;10.10;;;22.90;38.10;;;;;;6128211;28;83923;-67
2023/01/26 05:10:00;;;;;;;11.23;8.75;;;22.90;38.10;;;;;;6130883;28;86002;-61
2023/01/26 05:13:17;;;;;;;14.05;9.73;;;22.90;37.80;;;;;;6143818;28;84300;-62
2023/01/26 05:16:36;;;;;;;12.52;9.18;;;23.00;38.20;;;;;;6118282;28;82428;-63
2023/01/26 05:19:36;;;;;;;13.55;9.40;;;23.00;38.30;;;;;;6126739;28;82075;-65
2023/01/26 05:22:52;;;;;;;11.10;8.85;;;23.00;38.70;;;;;;6135166;28;83605;-60
2023/01/26 05:26:02;;;;;;;12.70;9.00;;;23.10;38.50;;;;;;6119466;28;80745;-60
2023/01/26 05:29:06;;;;;;;12.68;8.88;;;23.10;38.90;;;;;;6134066;28;80405;-61
2023/01/26 05:32:07;;;;;;;14.68;8.48;;;23.10;39.10;;;;;;6114904;28;82211;-61
2023/01/26 05:35:07;;;;;;;12.80;8.80;;;23.10;39.00;;;;;;6118620;28;83108;-60
2023/01/26 05:38:08;;;;;;;11.70;8.95;;;23.10;38.90;;;;;;6105317;28;83510;-60
2023/01/26 05:41:08;;;;;;;10.85;9.00;;;23.10;38.70;;;;;;6140310;28;81625;-63
2023/01/26 05:44:28;;;;;;;14.30;9.88;;;23.20;38.20;;;;;;6131997;28;81293;-63
2023/01/26 05:47:34;;;;;;;12.73;8.55;;;23.20;37.90;;;;;;6149850;28;83363;-63
2023/01/26 05:50:35;;;;;;;13.27;9.10;;;23.20;37.60;;;;;;6146129;28;83186;-65
2023/01/26 05:53:47;;;;;;;13.98;9.70;;;23.20;37.20;;;;;;6115552;28;81932;-60
2023/01/26 05:56:48;;;;;;;12.60;9.32;;;23.20;36.80;;;;;;6129670;28;83270;-61
2023/01/26 05:59:49;;;;;;;14.10;9.57;;;23.20;36.80;;;;;;6122705;28;82480;-63
2023/01/26 06:02:49;;;;;;;13.77;8.88;;;23.20;37.00;;;;;;6117710;28;83060;-60
2023/01/26 06:05:51;;;;;;;13.57;10.38;;;23.20;37.30;;;;;;6123994;28;83359;-61
2023/01/26 06:08:56;;;;;;;14.17;9.90;;;23.20;37.00;;;;;;6132627;28;83374;-60
2023/01/26 06:12:06;;;;;;;13.63;9.73;;;23.10;36.90;;;;;;6126044;28;87920;-61
2023/01/26 06:15:20;;;;;;;14.38;9.77;;;23.20;37.10;;;;;;6123276;28;83468;-61
2023/01/26 06:18:22;;;;;;;15.35;10.32;;;23.10;36.90;;;;;;6117844;28;81948;-61
2023/01/26 06:21:28;;;;;;;14.23;9.90;;;23.10;36.70;;;;;;6121913;28;83745;-60
2023/01/26 06:24:29;;;;;;;14.15;10.35;;;23.00;36.50;;;;;;6108582;28;85902;-61
2023/01/26 06:27:30;;;;;;;13.75;10.23;;;23.00;36.50;;;;;;6124570;28;83468;-61
2023/01/26 06:30:33;;;;;;;12.90;10.13;;;22.90;36.70;;;;;;6114369;28;85649;-61
2023/01/26 06:33:36;;;;;;;12.90;9.60;;;22.90;36.90;;;;;;6115405;28;92526;-62
2023/01/26 06:36:37;;;;;;;14.68;10.75;;;22.90;37.00;;;;;;6125743;28;85519;-61
2023/01/26 06:39:41;;;;;;;16.20;10.55;;;22.90;36.90;;;;;;6126068;28;85225;-62
2023/01/26 06:42:41;;;;;;;14.05;11.00;;;22.90;36.80;;;;;;6118777;28;85775;-63
2023/01/26 06:45:42;;;;;;;17.40;12.40;;;22.80;36.30;;;;;;6094285;28;85882;-62
2023/01/26 06:48:43;;;;;;;16.75;12.63;;;22.60;35.50;;;;;;6128048;28;85835;-61
2023/01/26 06:51:43;;;;;;;17.52;12.85;;;22.40;35.00;;;;;;6113349;28;87209;-61
2023/01/26 06:54:44;;;;;;;20.05;13.60;;;22.30;34.50;;;;;;6154734;28;85857;-60
2023/01/26 06:57:55;;;;;;;18.67;13.77;;;22.10;34.10;;;;;;6116987;28;86025;-66
2023/01/26 07:01:21;;;;;;;19.77;14.73;;;22.00;34.10;;;;;;6138449;28;84157;-64
2023/01/26 07:04:22;;;;;;;22.75;15.68;;;21.80;33.80;;;;;;6124938;28;83284;-63
2023/01/26 07:07:22;;;;;;;22.88;14.55;;;21.70;34.20;;;;;;6119792;28;83075;-62
2023/01/26 07:10:23;;;;;;;21.33;15.27;;;21.70;33.70;;;;;;6102795;28;83612;-62
2023/01/26 07:13:23;;;;;;;23.23;15.40;;;21.50;33.50;;;;;;6112775;28;84659;-63
2023/01/26 07:16:24;;;;;;;21.35;15.85;;;21.50;33.70;;;;;;6109364;28;83223;-63
2023/01/26 07:19:24;;;;;;;19.65;14.93;;;21.40;33.70;;;;;;6104542;28;85199;-63
2023/01/26 07:22:25;;;;;;;21.65;15.40;;;21.40;34.10;;;;;;6111667;28;84689;-60
2023/01/26 07:25:25;;;;;;;24.95;17.00;;;21.30;33.90;;;;;;6114027;28;83387;-66
2023/01/26 07:28:26;;;;;;;23.73;16.25;;;20.90;32.30;;;;;;6095406;28;85451;-68
2023/01/26 07:31:26;;;;;;;23.83;16.65;;;20.70;33.40;;;;;;6120123;28;83292;-67
2023/01/26 07:34:27;;;;;;;24.10;15.30;;;20.80;33.60;;;;;;6124146;28;83635;-65
2023/01/26 07:37:27;;;;;;;25.33;15.70;;;20.90;33.50;;;;;;6115910;28;82984;-62
2023/01/26 07:40:28;;;;;;;23.30;14.75;;;21.10;33.70;;;;;;6117164;28;83136;-59
2023/01/26 07:43:28;;;;;;;21.05;14.40;;;21.10;33.50;;;;;;6123001;28;84193;-58
2023/01/26 07:46:29;;;;;;;21.75;14.82;;;21.20;33.80;;;;;;6111303;28;85702;-52
2023/01/26 07:49:29;;;;;;;21.75;13.57;;;21.30;33.80;;;;;;6109113;28;89249;-58
2023/01/26 07:52:30;;;;;;;21.73;14.23;;;21.30;33.90;;;;;;6121287;28;83430;-63
2023/01/26 07:55:30;;;;;;;20.45;14.43;;;21.40;33.90;;;;;;6102394;28;83593;-57
2023/01/26 07:58:31;;;;;;;19.92;13.77;;;21.40;34.00;;;;;;6125561;28;83854;-60
2023/01/26 08:01:31;;;;;;;23.40;14.18;;;21.40;34.00;;;;;;6123445;28;83167;-60
2023/01/26 08:04:32;;;;;;;23.05;13.25;;;21.50;34.20;;;;;;6114849;28;83399;-55
2023/01/26 08:07:32;;;;;;;22.40;13.27;;;21.60;34.30;;;;;;6097450;28;83479;-58
2023/01/26 08:10:33;;;;;;;18.77;13.23;;;21.60;34.50;;;;;;6124582;28;83283;-60
2023/01/26 08:13:33;;;;;;;17.23;12.55;;;21.60;34.30;;;;;;6125963;28;83457;-61
2023/01/26 08:16:34;;;;;;;18.85;12.70;;;21.70;34.70;;;;;;6121442;28;83444;-61
2023/01/26 08:19:35;;;;;;;17.73;12.43;;;21.70;34.80;;;;;;6118211;28;83210;-64
2023/01/26 08:22:35;;;;;;;22.75;13.20;;;21.80;35.60;;;;;;6126554;28;83662;-63
2023/01/26 08:25:36;;;;;;;19.67;12.65;;;21.80;35.60;;;;;;6123776;28;83308;-64
2023/01/26 08:28:36;;;;;;;17.80;12.80;;;21.80;35.70;;;;;;6129026;28;84929;-62
2023/01/26 08:31:37;;;;;;;18.88;12.95;;;21.90;35.80;;;;;;6117275;28;83481;-64
2023/01/26 08:34:37;;;;;;;17.70;12.68;;;22.00;36.10;;;;;;6113628;28;83659;-62
2023/01/26 08:37:38;;;;;;;18.05;12.43;;;22.10;36.20;;;;;;6113693;28;84522;-63
2023/01/26 08:40:39;;;;;;;18.58;12.98;;;22.10;36.50;;;;;;6132958;28;85915;-64
2023/01/26 08:43:40;;;;;;;23.15;13.48;;;22.20;36.80;;;;;;6122505;28;83774;-62
2023/01/26 08:46:40;;;;;;;18.67;13.05;;;22.20;37.00;;;;;;6125100;28;82880;-58
2023/01/26 08:49:41;;;;;;;19.25;13.65;;;22.20;37.20;;;;;;6103119;28;84293;-56
2023/01/26 08:52:42;;;;;;;20.65;13.45;;;22.30;37.30;;;;;;6124556;28;83533;-59
2023/01/26 08:55:42;;;;;;;16.35;12.32;;;22.30;37.80;;;;;;6120016;28;83828;-65
2023/01/26 08:58:43;;;;;;;17.08;12.25;;;22.40;38.10;;;;;;6132432;28;83566;-61
2023/01/26 09:01:43;;;;;;;20.08;12.07;;;22.40;38.50;;;;;;6119601;28;84134;-54
2023/01/26 09:04:44;;;;;;;19.52;12.80;;;22.40;38.50;;;;;;6127860;28;83426;-48
2023/01/26 09:07:44;;;;;;;17.95;12.45;;;22.40;38.60;;;;;;6127388;28;83603;-53
2023/01/26 09:10:45;;;;;;;20.95;12.30;;;22.40;38.70;;;;;;6122552;28;84485;-56
2023/01/26 09:13:45;;;;;;;16.65;12.35;;;22.40;38.60;;;;;;6124399;28;83642;-54
2023/01/26 09:16:46;;;;;;;16.75;11.48;;;22.40;38.50;;;;;;6117533;28;83756;-51
2023/01/26 09:19:46;;;;;;;16.25;11.52;;;22.40;38.40;;;;;;6118192;28;82980;-53
2023/01/26 09:22:47;;;;;;;17.63;12.30;;;22.40;38.30;;;;;;6129981;28;83921;-53
2023/01/26 09:25:48;;;;;;;21.08;12.90;;;22.40;38.30;;;;;;6106854;28;84002;-52
2023/01/26 09:28:48;;;;;;;17.50;12.40;;;22.50;38.50;;;;;;6115372;28;83437;-58
2023/01/26 09:31:49;;;;;;;16.10;10.95;;;22.50;38.70;;;;;;6114239;28;86576;-56
2023/01/26 09:34:49;;;;;;;17.55;11.68;;;22.50;38.70;;;;;;6119262;28;83502;-58
2023/01/26 09:37:50;;;;;;;16.08;11.50;;;22.50;38.80;;;;;;6108412;28;83496;-55
2023/01/26 09:40:50;;;;;;;15.52;11.10;;;22.50;38.80;;;;;;6117792;28;83300;-58
2023/01/26 09:43:51;;;;;;;15.30;11.38;;;22.50;38.90;;;;;;6111403;28;82896;-57
2023/01/26 09:46:51;;;;;;;14.70;10.85;;;22.50;38.90;;;;;;6099531;28;84375;-52
2023/01/26 09:49:52;;;;;;;15.02;10.80;;;22.50;38.90;;;;;;6131144;28;84526;-52
2023/01/26 09:52:52;;;;;;;14.90;11.63;;;22.50;38.90;;;;;;6106440;28;83120;-53
2023/01/26 09:55:53;;;;;;;15.82;11.07;;;22.50;38.90;;;;;;6109641;28;83498;-53
2023/01/26 09:58:53;;;;;;;14.35;10.95;;;22.50;38.90;;;;;;6105355;28;83220;-52
2023/01/26 10:01:54;;;;;;;14.50;10.27;;;22.50;38.80;;;;;;6110588;28;83199;-56
2023/01/26 10:04:54;;;;;;;14.20;10.20;;;22.60;38.90;;;;;;6119522;28;82969;-56
2023/01/26 10:07:55;;;;;;;15.38;10.38;;;22.50;39.10;;;;;;6137328;28;83752;-56
2023/01/26 10:10:56;;;;;;;13.45;10.60;;;22.50;38.90;;;;;;6127174;28;82705;-51
2023/01/26 10:13:56;;;;;;;13.35;10.10;;;22.50;38.90;;;;;;6125333;28;84162;-54
2023/01/26 10:16:57;;;;;;;14.65;10.50;;;22.50;39.00;;;;;;6135263;28;83237;-51
2023/01/26 10:19:57;;;;;;;13.15;9.98;;;22.50;39.10;;;;;;6121567;28;83356;-52
2023/01/26 10:22:58;;;;;;;17.40;11.70;;;22.50;39.10;;;;;;6131806;28;83591;-53
2023/01/26 10:25:58;;;;;;;16.10;11.63;;;22.60;39.30;;;;;;6111089;28;84190;-50
2023/01/26 10:28:59;;;;;;;15.48;10.40;;;22.60;39.30;;;;;;6125644;28;83136;-50
2023/01/26 10:31:59;;;;;;;15.32;9.80;;;22.60;39.30;;;;;;6128521;28;83977;-50
2023/01/26 10:35:00;;;;;;;17.75;11.18;;;22.60;39.30;;;;;;6102586;28;83528;-53
2023/01/26 10:38:01;;;;;;;14.20;10.77;;;22.60;39.30;;;;;;6126212;28;83079;-49
2023/01/26 10:41:02;;;;;;;15.93;10.43;;;22.60;39.40;;;;;;6126439;28;85405;-52
2023/01/26 10:44:03;;;;;;;13.82;10.02;;;22.60;39.60;;;;;;6115063;28;86808;-56
2023/01/26 10:47:04;;;;;;;14.27;9.80;;;22.60;39.20;;;;;;6126233;28;83728;-52
2023/01/26 10:50:04;;;;;;;17.45;10.52;;;22.60;39.50;;;;;;6115355;28;83075;-48
2023/01/26 10:53:05;;;;;;;12.65;9.88;;;22.60;39.30;;;;;;6102896;28;84706;-52
2023/01/26 10:56:06;;;;;;;14.75;10.30;;;22.60;39.20;;;;;;6105085;28;82866;-50
2023/01/26 10:59:06;;;;;;;13.00;9.88;;;22.60;39.20;;;;;;6104942;28;82978;-52
2023/01/26 11:02:07;;;;;;;14.23;10.07;;;22.70;39.30;;;;;;6113995;28;82649;-55
2023/01/26 11:05:08;;;;;;;14.52;10.60;;;22.60;39.10;;;;;;6114976;28;84377;-52
2023/01/26 11:08:08;;;;;;;13.00;9.55;;;22.60;39.10;;;;;;6118542;28;84970;-49
2023/01/26 11:11:10;;;;;;;15.15;10.63;;;22.70;39.30;;;;;;6145988;28;85915;-53
2023/01/26 11:14:14;;;;;;;12.57;9.90;;;22.70;39.10;;;;;;6128218;28;83258;-52
2023/01/26 11:17:14;;;;;;;14.43;10.90;;;22.60;39.10;;;;;;6133880;28;82952;-54
2023/01/26 11:20:15;;;;;;;14.13;10.35;;;22.70;39.30;;;;;;6126790;28;83086;-54
2023/01/26 11:23:15;;;;;;;14.30;10.15;;;22.70;39.40;;;;;;6129033;28;83152;-52
2023/01/26 11:26:16;;;;;;;14.15;9.77;;;22.70;39.20;;;;;;6118460;28;84149;-52
2023/01/26 11:29:16;;;;;;;13.60;10.02;;;22.70;39.00;;;;;;6131585;28;83607;-54
2023/01/26 11:32:17;;;;;;;12.13;9.40;;;22.70;39.40;;;;;;6110012;28;82831;-51
2023/01/26 11:35:18;;;;;;;12.88;9.73;;;22.70;39.30;;;;;;6122927;28;82887;-54
2023/01/26 11:38:18;;;;;;;12.18;9.50;;;22.70;39.30;;;;;;6133146;28;80751;-63
2023/01/26 11:41:19;;;;;;;13.75;9.55;;;22.70;39.20;;;;;;6158634;28;81146;-63
2023/01/26 11:44:19;;;;;;;13.10;9.40;;;22.70;39.30;;;;;;6133535;28;80369;-63
2023/01/26 11:47:20;;;;;;;13.55;10.23;;;22.70;39.40;;;;;;6142841;28;80963;-62
2023/01/26 11:50:20;;;;;;;12.95;9.38;;;22.70;39.50;;;;;;6142872;28;84187;-68
2023/01/26 11:53:22;;;;;;;14.10;9.88;;;22.70;39.10;;;;;;6134002;28;83669;-66
2023/01/26 11:56:22;;;;;;;15.60;11.25;;;22.70;39.10;;;;;;6143378;28;80629;-71
2023/01/26 11:59:23;;;;;;;14.02;10.25;;;22.70;38.90;;;;;;6129273;28;83408;-61
2023/01/26 12:02:23;;;;;;;14.13;10.52;;;22.70;38.50;;;;;;6129022;28;83831;-64
2023/01/26 12:05:24;;;;;;;13.70;10.35;;;22.70;38.80;;;;;;6121657;28;84204;-63
2023/01/26 12:08:24;;;;;;;12.90;9.93;;;22.70;39.10;;;;;;6127044;28;84064;-64
2023/01/26 12:11:25;;;;;;;15.15;9.95;;;22.70;38.70;;;;;;6131051;28;82953;-63
2023/01/26 12:14:25;;;;;;;13.70;9.98;;;22.70;38.80;;;;;;6143860;28;80903;-63
2023/01/26 12:17:26;;;;;;;12.57;9.65;;;22.70;39.10;;;;;;6126906;28;83204;-62
2023/01/26 12:20:26;;;;;;;16.08;10.48;;;22.70;38.90;;;;;;6132646;28;82980;-63
2023/01/26 12:23:27;;;;;;;15.82;10.07;;;22.70;38.60;;;;;;6141671;28;83375;-61
2023/01/26 12:26:27;;;;;;;13.68;10.07;;;22.70;39.20;;;;;;6118820;28;83223;-63
2023/01/26 12:29:28;;;;;;;16.85;11.65;;;22.70;39.20;;;;;;6129635;28;83281;-63
2023/01/26 12:32:28;;;;;;;14.30;10.55;;;22.70;38.70;;;;;;6119383;28;83575;-64
2023/01/26 12:35:29;;;;;;;14.23;10.13;;;22.70;38.50;;;;;;6128370;28;90027;-63
2023/01/26 12:38:29;;;;;;;18.30;10.93;;;22.70;39.00;;;;;;6122220;28;82918;-63
2023/01/26 12:41:31;;;;;;;14.00;10.35;;;22.70;38.70;;;;;;6110147;28;85589;-63
2023/01/26 12:44:32;;;;;;;14.80;10.07;;;22.80;38.90;;;;;;6122947;28;84558;-64
2023/01/26 12:47:32;;;;;;;15.02;10.65;;;22.80;39.00;;;;;;6141514;28;83239;-64
2023/01/26 12:50:34;;;;;;;15.52;10.90;;;22.70;38.70;;;;;;6138871;28;84465;-64
2023/01/26 12:53:34;;;;;;;14.57;10.48;;;22.70;38.70;;;;;;6117594;28;82733;-65
2023/01/26 12:56:35;;;;;;;15.38;10.23;;;22.70;38.50;;;;;;6107565;28;83626;-64
2023/01/26 12:59:36;;;;;;;14.77;10.40;;;22.70;38.70;;;;;;6106590;28;83019;-64
2023/01/26 13:02:36;;;;;;;13.35;10.05;;;22.80;38.50;;;;;;6117999;28;83414;-64
2023/01/26 13:05:37;;;;;;;14.70;10.23;;;22.80;38.20;;;;;;6125023;28;83507;-63
2023/01/26 13:08:37;;;;;;;17.00;11.13;;;22.80;38.30;;;;;;6127276;28;83783;-62
2023/01/26 13:11:38;;;;;;;16.95;11.55;;;22.80;38.10;;;;;;6127690;28;83609;-62
2023/01/26 13:14:39;;;;;;;23.17;12.52;;;22.80;38.40;;;;;;6121279;28;83154;-65
2023/01/26 13:17:39;;;;;;;31.20;15.73;;;22.80;38.10;;;;;;6121236;28;85764;-62
2023/01/26 13:20:40;;;;;;;44.50;18.50;;;22.80;38.70;;;;;;6122897;28;83270;-62
2023/01/26 13:23:41;;;;;;;44.05;21.38;;;22.80;38.30;;;;;;6145837;28;83628;-62
2023/01/26 13:26:42;;;;;;;134.68;70.75;;;22.90;38.60;;;;;;6123672;28;83874;-62
2023/01/26 13:29:42;;;;;;;142.07;82.07;;;22.90;38.60;;;;;;6120911;28;84546;-62
2023/01/26 13:32:43;;;;;;;122.32;67.28;;;22.90;38.10;;;;;;6121954;28;83218;-60
2023/01/26 13:35:43;;;;;;;100.57;55.28;;;22.90;37.30;;;;;;6116420;28;84325;-61
2023/01/26 13:38:44;;;;;;;72.10;40.65;;;22.90;36.70;;;;;;6117314;28;83870;-65
2023/01/26 13:41:45;;;;;;;59.53;32.35;;;22.80;36.30;;;;;;6119826;28;82990;-66
2023/01/26 13:44:45;;;;;;;43.67;24.20;;;22.40;34.20;;;;;;6118345;28;83087;-68
2023/01/26 13:47:46;;;;;;;59.88;29.77;;;21.80;33.10;;;;;;6110710;28;95317;-64
2023/01/26 13:50:46;;;;;;;53.63;26.20;;;21.70;35.70;;;;;;6111407;28;84461;-64
2023/01/26 13:53:47;;;;;;;53.30;26.02;;;21.80;35.50;;;;;;6116246;28;83738;-63
2023/01/26 13:56:47;;;;;;;48.72;24.35;;;21.90;35.10;;;;;;6107707;28;83280;-63
2023/01/26 13:59:48;;;;;;;49.70;25.63;;;22.00;35.30;;;;;;6115233;28;83153;-63
2023/01/26 14:02:48;;;;;;;40.90;23.55;;;22.00;35.40;;;;;;6103063;28;83139;-63
2023/01/26 14:05:49;;;;;;;46.72;23.45;;;22.00;35.70;;;;;;6122832;28;84644;-64
2023/01/26 14:08:49;;;;;;;46.30;24.08;;;22.10;35.80;;;;;;6109627;28;83197;-64
2023/01/26 14:11:50;;;;;;;38.08;21.27;;;22.10;36.20;;;;;;6115333;28;84194;-63
2023/01/26 14:14:50;;;;;;;37.97;21.80;;;22.10;36.20;;;;;;6102586;28;83160;-63
2023/01/26 14:17:51;;;;;;;40.47;20.92;;;22.10;36.50;;;;;;6101171;28;83369;-65
2023/01/26 14:20:51;;;;;;;33.75;18.40;;;22.00;36.70;;;;;;6097846;28;83063;-66
2023/01/26 14:23:52;;;;;;;31.25;17.90;;;22.00;36.80;;;;;;6118603;28;83449;-64
2023/01/26 14:26:52;;;;;;;32.38;19.33;;;22.00;37.20;;;;;;6105019;28;86330;-65
2023/01/26 14:29:53;;;;;;;29.75;17.92;;;22.00;37.30;;;;;;6110819;28;83543;-68
2023/01/26 14:32:53;;;;;;;31.95;17.42;;;22.00;37.40;;;;;;6115257;28;82979;-68
2023/01/26 14:35:54;;;;;;;25.60;15.70;;;22.10;37.50;;;;;;6101230;28;85272;-67
2023/01/26 14:38:55;;;;;;;29.90;16.52;;;22.10;37.60;;;;;;6099348;28;83503;-65
2023/01/26 14:41:55;;;;;;;24.73;15.27;;;22.10;37.80;;;;;;6109168;28;83461;-64
2023/01/26 14:44:56;;;;;;;24.92;15.75;;;22.10;38.10;;;;;;6098578;28;83818;-66
2023/01/26 14:47:57;;;;;;;25.80;16.10;;;22.10;38.70;;;;;;6087810;28;83433;-65
2023/01/26 14:50:58;;;;;;;129.25;31.85;;;22.10;39.90;;;;;;6116550;28;84414;-66
2023/01/26 14:53:59;;;;;;;115.97;28.50;;;22.10;39.70;;;;;;6109883;28;83100;-65
2023/01/26 14:57:01;;;;;;;71.43;22.60;;;22.20;39.40;;;;;;6115709;28;87464;-64
2023/01/26 15:00:07;;;;;;;64.50;21.35;;;22.20;39.00;;;;;;6104548;28;84003;-66
2023/01/26 15:03:07;;;;;;;76.60;23.02;;;22.30;39.50;;;;;;6101499;28;89006;-72
2023/01/26 15:06:08;;;;;;;56.53;21.10;;;22.40;39.50;;;;;;6101657;28;83357;-67
2023/01/26 15:09:09;;;;;;;56.78;19.67;;;22.50;39.70;;;;;;6099519;28;83097;-67
2023/01/26 15:12:15;;;;;;;56.00;20.73;;;22.50;39.70;;;;;;6106371;28;87289;-66
2023/01/26 15:15:16;;;;;;;48.20;19.48;;;22.60;39.80;;;;;;6109655;28;86923;-69
2023/01/26 15:18:16;;;;;;;51.65;20.42;;;22.70;39.80;;;;;;6110591;28;84071;-69
2023/01/26 15:21:17;;;;;;;47.53;18.13;;;22.70;40.20;;;;;;6107871;28;88171;-69
2023/01/26 15:24:17;;;;;;;48.63;17.42;;;22.70;40.40;;;;;;6115400;28;84413;-67
2023/01/26 15:27:18;;;;;;;38.65;17.58;;;22.70;40.50;;;;;;6099680;28;87132;-67
2023/01/26 15:30:18;;;;;;;29.60;16.95;;;22.80;39.80;;;;;;6107690;28;83294;-66
2023/01/26 15:33:19;;;;;;;35.88;16.38;;;22.80;38.10;;;;;;6101195;28;85399;-66
2023/01/26 15:36:19;;;;;;;25.38;15.13;;;22.70;37.60;;;;;;6093901;28;83635;-68
2023/01/26 15:39:20;;;;;;;27.20;15.23;;;22.70;37.80;;;;;;6096954;28;87911;-64
2023/01/26 15:42:20;;;;;;;24.75;13.95;;;22.80;38.00;;;;;;6096948;28;84036;-65
2023/01/26 15:45:21;;;;;;;24.02;14.65;;;22.70;38.10;;;;;;6098314;28;83122;-68
2023/01/26 15:48:22;;;;;;;27.95;13.65;;;22.80;38.20;;;;;;6097272;28;83199;-66
2023/01/26 15:51:23;;;;;;;24.40;13.48;;;22.80;38.40;;;;;;6101177;28;83430;-65
2023/01/26 15:54:23;;;;;;;23.17;13.52;;;22.80;38.30;;;;;;6103195;28;83596;-63
2023/01/26 15:57:24;;;;;;;24.52;13.50;;;22.80;38.20;;;;;;6093342;28;87124;-62
2023/01/26 16:00:24;;;;;;;20.25;12.77;;;22.80;38.30;;;;;;6100261;28;87864;-62
2023/01/26 16:03:25;;;;;;;27.85;13.50;;;22.80;38.00;;;;;;6125606;28;83339;-63